Aérodrome :
LOGIN :

S'inscrire | Disclaimer

   EN    FR    IT 

 










Légende :    VFR   VFR Marginal   IFR   IFR Intensif   IFR Très Intensif
Visi : 
Plafond : 
>= 8 km
>= 3000ft
5 à 8 km
1000 à 3000 ft
1500m à 5 km
500 à 1000 ft
800 à 1500m
200 à 500 ft
< 800m
< 200 ft
Symboles :   Orages  Brouillard  Fortes neiges  Fortes précipitations  Vent > 20 kt
SIGMETs :   Divers  Orages  Givrage  Turbulence  Onde Orograph.  Cendres Volcan.







- Altitude de l'aérodrome : 82 ft
- Code IATA : QIE
- Voir les cartes d'approche


LFMI - Istres

DERNIER METAR :
  • 170900Z AUTO 34005KT CAVOK 18/18 Q1016 TEMPO 4000 -RA BR

METARs EXPIRÉS :
  • 170830Z AUTO 35005KT 9000 NSC 17/17 Q1017 TEMPO 4000 -RA BR
  • 170800Z AUTO 36005KT 8000 NSC 16/16 Q1017 BECMG RA
  • 170730Z AUTO 36006KT 9000 FEW024 OVC054 16/16 Q1017 BECMG RA
  • 170700Z AUTO 35005KT 7000 FEW027 OVC052 16/16 Q1016 BECMG RA
  • 170630Z AUTO 00000KT 8000 FEW034 BKN054 OVC070 16/16 Q1017 BECMG RA

TAF TAF LFMI
Valide du 17 à 09h jusqu'au 18 à 09h UTC


170800Z 1709/1809 02005KT 9999 FEW010 BKN045
TEMPO 1709/1712 4000 -RA BR SCT010
TEMPO 1715/1718 VRB10KT 4000 SHRA BR BKN040TCU
BECMG 1720/1722 4000 RA BR
PROB40
TEMPO 1722/1804 VRB05KT 2000 +RA SCT008 BKN033TCU
BECMG 1804/1805 06007KT 9999 NSW BKN043
Pas de NOTAMs connus pour ce terrain.



MET'MAP, la Météo Aéronautique d'un coup d'oeil ! - Copyright ORBIFLY Décembre 2007 - Disclaimer

ORBIFLY MET'MAP TEAM :

Programmation & Développement : Alexandra Zaïnal
Conception & Développement : Baudouin d'Aumeries
Co-Programmation & Développement : Marc-Olivier Méhu
Soutien technique & logistique : Manuel Goepfert

Contact : metmap@orbifly.com




SOURCES & CREDITS :

   NOAA